createdAt,value
2022-12-16T00:01:29.024Z,27.53
2022-12-16T00:03:57.782Z,25.57
2022-12-16T00:06:26.794Z,26.47
2022-12-16T00:08:53.660Z,28.05
2022-12-16T00:11:21.678Z,27.47
2022-12-16T00:13:48.888Z,27.97
2022-12-16T00:16:17.653Z,26.87
2022-12-16T00:18:45.037Z,27.40
2022-12-16T00:21:12.464Z,28.33
2022-12-16T00:23:41.845Z,27.20
2022-12-16T00:26:09.186Z,26.23
2022-12-16T00:28:36.171Z,27.40
2022-12-16T00:31:03.294Z,28.63
2022-12-16T00:33:30.714Z,28.50
2022-12-16T00:35:57.871Z,27.37
2022-12-16T00:38:26.321Z,28.20
2022-12-16T00:40:53.102Z,28.17
2022-12-16T00:43:20.310Z,28.57
2022-12-16T00:45:48.022Z,28.10
2022-12-16T00:48:15.444Z,27.13
2022-12-16T00:50:48.968Z,28.63
2022-12-16T00:53:15.719Z,28.07
2022-12-16T00:55:43.315Z,26.63
2022-12-16T00:58:10.577Z,27.33
2022-12-16T01:00:37.335Z,28.30
2022-12-16T01:03:04.971Z,25.57
2022-12-16T01:05:31.691Z,28.20
2022-12-16T01:07:58.360Z,27.07
2022-12-16T01:10:25.835Z,27.40
2022-12-16T01:12:52.626Z,27.33
2022-12-16T01:15:19.793Z,27.60
2022-12-16T01:17:46.871Z,28.00
2022-12-16T01:20:14.281Z,27.37
2022-12-16T01:22:41.277Z,26.37
2022-12-16T01:25:10.167Z,26.50
2022-12-16T01:27:36.815Z,26.57
2022-12-16T01:30:03.965Z,26.07
2022-12-16T01:32:30.609Z,25.90
2022-12-16T01:34:57.381Z,24.90
2022-12-16T01:37:24.299Z,26.33
2022-12-16T01:39:51.087Z,25.87
2022-12-16T01:42:21.850Z,26.47
2022-12-16T01:44:52.286Z,25.80
2022-12-16T01:47:33.257Z,25.83
2022-12-16T01:50:07.364Z,25.27
2022-12-16T01:52:40.258Z,25.73
2022-12-16T01:55:16.386Z,26.03
2022-12-16T01:57:48.056Z,24.50
2022-12-16T02:00:15.010Z,25.57
2022-12-16T02:02:45.491Z,24.67
2022-12-16T02:05:21.101Z,25.70
2022-12-16T02:07:56.197Z,25.33
2022-12-16T02:10:34.025Z,24.77
2022-12-16T02:13:25.449Z,24.33
2022-12-16T02:16:18.180Z,24.23
2022-12-16T02:19:23.354Z,24.83
2022-12-16T02:22:05.515Z,22.27
2022-12-16T02:24:44.206Z,26.47
2022-12-16T02:27:47.972Z,25.40
2022-12-16T02:30:34.380Z,22.37
2022-12-16T02:33:13.242Z,24.37
2022-12-16T02:35:41.770Z,23.87
2022-12-16T02:38:26.618Z,22.83
2022-12-16T02:41:02.842Z,24.37
2022-12-16T02:44:04.405Z,24.43
2022-12-16T02:46:35.368Z,23.27
2022-12-16T02:49:29.132Z,23.73
2022-12-16T02:51:59.377Z,24.73
2022-12-16T02:54:27.382Z,25.27
2022-12-16T02:56:57.003Z,25.27
2022-12-16T02:59:54.340Z,25.83
2022-12-16T03:02:54.948Z,25.37
2022-12-16T03:05:48.173Z,25.07
2022-12-16T03:08:25.025Z,25.27
2022-12-16T03:10:56.853Z,25.30
2022-12-16T03:13:23.819Z,24.93
2022-12-16T03:15:53.927Z,24.67
2022-12-16T03:18:22.022Z,25.40
2022-12-16T03:21:00.464Z,23.80
2022-12-16T03:23:40.923Z,24.23
2022-12-16T03:26:15.884Z,24.60
2022-12-16T03:28:51.687Z,25.33
2022-12-16T03:31:51.306Z,25.23
2022-12-16T03:34:33.179Z,25.57
2022-12-16T03:37:04.220Z,26.10
2022-12-16T03:39:39.931Z,23.83
2022-12-16T03:42:07.736Z,24.27
2022-12-16T03:44:35.592Z,25.43
2022-12-16T03:47:04.999Z,25.00
2022-12-16T03:49:31.706Z,24.97
2022-12-16T03:51:58.357Z,23.97
2022-12-16T03:54:25.769Z,23.30
2022-12-16T03:56:52.467Z,22.77
2022-12-16T03:59:19.223Z,22.57
2022-12-16T04:01:46.096Z,22.17
2022-12-16T04:04:12.956Z,22.37
2022-12-16T04:06:39.592Z,21.67
2022-12-16T04:09:06.296Z,21.67
2022-12-16T04:11:51.567Z,23.83
2022-12-16T04:14:36.966Z,22.37
2022-12-16T04:17:22.566Z,21.70
2022-12-16T04:20:08.797Z,21.53
2022-12-16T04:22:59.017Z,20.20
2022-12-16T04:25:32.566Z,19.77
2022-12-16T04:27:59.215Z,19.50
2022-12-16T04:30:27.928Z,18.73
2022-12-16T04:33:19.574Z,17.53
2022-12-16T04:36:04.878Z,17.50
2022-12-16T04:38:50.651Z,17.07
2022-12-16T04:41:35.777Z,15.13
2022-12-16T04:44:22.048Z,14.77
2022-12-16T04:47:07.286Z,14.13
2022-12-16T04:49:52.592Z,14.90
2022-12-16T04:52:38.399Z,12.20
2022-12-16T04:55:25.186Z,11.53
2022-12-16T04:58:12.701Z,9.67
2022-12-16T05:00:58.524Z,11.87
2022-12-16T05:03:44.874Z,11.00
2022-12-16T05:06:30.698Z,11.80
2022-12-16T05:09:15.788Z,11.70
2022-12-16T05:12:01.592Z,11.53
2022-12-16T05:14:46.818Z,10.17
2022-12-16T05:17:33.886Z,10.50
2022-12-16T05:20:19.686Z,10.60
2022-12-16T05:23:04.840Z,11.30
2022-12-16T05:25:50.676Z,11.23
2022-12-16T05:28:37.621Z,10.37
2022-12-16T05:31:23.382Z,10.67
2022-12-16T05:34:08.647Z,11.70
2022-12-16T05:36:53.879Z,12.00
2022-12-16T05:39:39.240Z,12.27
2022-12-16T05:42:24.751Z,12.63
2022-12-16T05:45:10.073Z,11.17
2022-12-16T05:47:55.300Z,10.80
2022-12-16T05:50:40.464Z,11.80
2022-12-16T05:53:25.801Z,12.80
2022-12-16T05:56:11.120Z,11.73
2022-12-16T05:58:56.180Z,12.50
2022-12-16T06:01:41.611Z,11.50
2022-12-16T06:04:26.789Z,10.80
2022-12-16T06:07:11.999Z,9.70
2022-12-16T06:09:57.188Z,9.60
2022-12-16T06:12:43.001Z,10.80
2022-12-16T06:15:28.775Z,10.33
2022-12-16T06:18:14.408Z,10.47
2022-12-16T06:21:00.166Z,10.90
2022-12-16T06:23:45.374Z,9.37
2022-12-16T06:26:30.650Z,10.17
2022-12-16T06:29:15.889Z,10.90
2022-12-16T06:32:01.115Z,10.47
2022-12-16T06:34:57.101Z,11.17
2022-12-16T06:37:42.125Z,11.80
2022-12-16T06:40:28.527Z,11.27
2022-12-16T06:43:13.736Z,11.60
2022-12-16T06:45:59.134Z,11.07
2022-12-16T06:48:44.337Z,10.97
2022-12-16T06:51:29.574Z,11.87
2022-12-16T06:54:14.781Z,11.10
2022-12-16T06:57:00.072Z,12.47
2022-12-16T06:59:45.500Z,12.70
2022-12-16T07:02:32.766Z,12.27
2022-12-16T07:05:18.141Z,13.03
2022-12-16T07:08:08.488Z,13.10
2022-12-16T07:10:55.283Z,13.80
2022-12-16T07:13:42.135Z,14.00
2022-12-16T07:16:27.388Z,14.30
2022-12-16T07:19:12.530Z,15.13
2022-12-16T07:21:57.704Z,18.23
2022-12-16T07:24:43.049Z,17.73
2022-12-16T07:27:28.192Z,16.77
2022-12-16T07:30:13.429Z,13.97
2022-12-16T07:32:58.617Z,16.93
2022-12-16T07:35:43.938Z,12.77
2022-12-16T07:38:29.118Z,13.37
2022-12-16T07:41:14.507Z,13.97
2022-12-16T07:43:59.978Z,14.43
2022-12-16T07:46:45.348Z,18.75
2022-12-16T07:49:30.852Z,15.90
2022-12-16T07:52:16.090Z,15.70
2022-12-16T07:55:08.826Z,13.73
2022-12-16T07:57:54.193Z,14.47
2022-12-16T08:00:39.347Z,12.23
2022-12-16T08:03:24.612Z,14.00
2022-12-16T08:06:09.875Z,12.67
2022-12-16T08:08:54.889Z,12.60
2022-12-16T08:11:40.097Z,11.57
2022-12-16T08:14:25.315Z,12.07
2022-12-16T08:17:10.617Z,11.63
2022-12-16T08:19:55.994Z,11.50
2022-12-16T08:22:41.032Z,12.33
2022-12-16T08:25:26.282Z,11.40
2022-12-16T08:28:14.990Z,10.27
2022-12-16T08:31:00.356Z,10.40
2022-12-16T08:33:45.747Z,10.53
2022-12-16T08:36:30.923Z,9.10
2022-12-16T08:39:16.207Z,10.20
2022-12-16T08:42:01.390Z,9.57
2022-12-16T08:44:46.712Z,9.53
2022-12-16T08:47:32.299Z,9.63
2022-12-16T08:50:17.457Z,9.63
2022-12-16T08:53:03.235Z,8.50
2022-12-16T08:55:48.518Z,8.97
2022-12-16T08:58:34.323Z,8.83
2022-12-16T09:01:19.623Z,9.33
2022-12-16T09:04:04.963Z,9.03
2022-12-16T09:06:50.418Z,8.80
2022-12-16T09:09:35.564Z,8.97
2022-12-16T09:12:21.184Z,8.73
2022-12-16T09:15:06.426Z,8.53
2022-12-16T09:17:51.957Z,9.80
2022-12-16T09:20:38.240Z,9.70
2022-12-16T09:23:23.853Z,8.80
2022-12-16T09:26:09.141Z,9.50
2022-12-16T09:28:54.429Z,8.47
2022-12-16T09:31:39.949Z,7.90
2022-12-16T09:34:25.327Z,9.20
2022-12-16T09:37:10.492Z,8.73
2022-12-16T09:39:55.646Z,7.87
2022-12-16T09:43:12.247Z,7.57
2022-12-16T09:46:12.671Z,7.60
2022-12-16T09:49:14.892Z,7.13
2022-12-16T09:52:01.627Z,6.30
2022-12-16T09:54:50.318Z,7.07
2022-12-16T09:57:38.295Z,6.97
2022-12-16T10:00:37.681Z,6.93
2022-12-16T10:03:32.267Z,7.13
2022-12-16T10:06:24.923Z,6.43
2022-12-16T10:09:37.480Z,7.27
2022-12-16T10:12:34.901Z,6.20
2022-12-16T10:15:45.291Z,6.10
2022-12-16T10:19:01.069Z,6.77
2022-12-16T10:21:53.413Z,6.20
2022-12-16T10:24:44.647Z,6.87
2022-12-16T10:27:35.552Z,6.83
2022-12-16T10:30:22.041Z,7.17
2022-12-16T10:33:10.342Z,6.43
2022-12-16T10:36:03.123Z,6.93
2022-12-16T10:39:02.227Z,8.83
2022-12-16T10:41:52.980Z,8.10
2022-12-16T10:45:07.398Z,6.90
2022-12-16T10:47:52.658Z,7.00
2022-12-16T10:50:38.730Z,6.40
2022-12-16T10:53:33.724Z,7.00
2022-12-16T10:56:40.870Z,7.93
2022-12-16T10:59:28.052Z,7.10
2022-12-16T11:02:22.569Z,7.60
2022-12-16T11:05:08.282Z,7.93
2022-12-16T11:08:02.745Z,7.97
2022-12-16T11:10:53.467Z,7.80
2022-12-16T11:13:55.004Z,7.77
2022-12-16T11:16:47.571Z,7.40
2022-12-16T11:19:41.401Z,7.63
2022-12-16T11:22:35.314Z,7.50
2022-12-16T11:25:25.015Z,7.40
2022-12-16T11:28:20.364Z,7.57
2022-12-16T11:31:14.278Z,6.47
2022-12-16T11:34:01.055Z,6.73
2022-12-16T11:36:46.658Z,6.67
2022-12-16T11:39:38.540Z,6.73
2022-12-16T11:42:25.202Z,6.63
2022-12-16T11:45:20.487Z,6.67
2022-12-16T11:48:19.959Z,6.57
2022-12-16T11:51:15.456Z,5.73
2022-12-16T11:54:26.109Z,6.30
2022-12-16T11:57:11.275Z,6.70
2022-12-16T12:00:00.504Z,6.63
2022-12-16T12:03:09.135Z,6.33
2022-12-16T12:06:07.852Z,6.37
2022-12-16T12:08:57.546Z,6.40
2022-12-16T12:12:01.654Z,6.87
2022-12-16T12:15:02.089Z,6.50
2022-12-16T12:18:12.281Z,6.23
2022-12-16T12:21:12.890Z,6.07
2022-12-16T12:24:20.465Z,6.43
2022-12-16T12:27:18.790Z,5.30
2022-12-16T12:30:16.845Z,5.97
2022-12-16T12:33:16.446Z,5.77
2022-12-16T12:36:23.808Z,5.90
2022-12-16T12:39:28.030Z,5.20
2022-12-16T12:42:22.583Z,6.37
2022-12-16T12:45:13.297Z,7.00
2022-12-16T12:48:19.626Z,6.37
2022-12-16T12:51:32.596Z,6.77
2022-12-16T12:54:39.638Z,6.50
2022-12-16T12:57:27.699Z,6.93
2022-12-16T13:00:22.172Z,5.90
2022-12-16T13:03:22.754Z,7.00
2022-12-16T13:06:09.179Z,5.93
2022-12-16T13:09:02.573Z,5.60
2022-12-16T13:11:47.755Z,6.00
2022-12-16T13:14:51.529Z,6.17
2022-12-16T13:17:39.131Z,6.07
2022-12-16T13:20:50.679Z,5.80
2022-12-16T13:23:45.935Z,6.50
2022-12-16T13:26:37.137Z,5.80
2022-12-16T13:29:43.929Z,5.93
2022-12-16T13:32:29.103Z,5.70
2022-12-16T13:35:28.845Z,5.87
2022-12-16T13:38:37.296Z,5.70
2022-12-16T13:41:25.524Z,5.90
2022-12-16T13:44:16.038Z,6.90
2022-12-16T13:47:09.913Z,6.77
2022-12-16T13:49:55.299Z,6.97
2022-12-16T13:53:16.531Z,6.47
2022-12-16T13:56:13.753Z,5.50
2022-12-16T13:59:07.126Z,5.47
2022-12-16T14:02:01.627Z,5.83
2022-12-16T14:04:51.306Z,6.67
2022-12-16T14:07:39.313Z,6.63
2022-12-16T14:10:38.854Z,7.33
2022-12-16T14:13:33.857Z,7.73
2022-12-16T14:16:38.738Z,6.80
2022-12-16T14:19:47.631Z,6.37
2022-12-16T14:22:59.072Z,8.13
2022-12-16T14:25:44.436Z,8.97
2022-12-16T14:28:51.148Z,10.40
2022-12-16T14:31:52.803Z,10.33
2022-12-16T14:34:47.207Z,13.07
2022-12-16T14:37:41.614Z,13.20
2022-12-16T14:40:41.990Z,12.00
2022-12-16T14:43:44.445Z,9.03
2022-12-16T14:46:55.951Z,8.80
2022-12-16T14:49:46.873Z,8.53
2022-12-16T14:52:46.247Z,9.83
2022-12-16T14:55:37.521Z,8.63
2022-12-16T14:58:34.194Z,8.83
2022-12-16T15:01:23.875Z,8.87
2022-12-16T15:04:09.331Z,9.10
2022-12-16T15:07:01.736Z,9.27
2022-12-16T15:09:52.638Z,8.17
2022-12-16T15:12:44.058Z,9.03
2022-12-16T15:15:40.909Z,12.93
2022-12-16T15:18:36.678Z,14.13
2022-12-16T15:21:22.406Z,11.27
2022-12-16T15:24:07.639Z,12.57
2022-12-16T15:26:53.938Z,10.70
2022-12-16T15:29:59.968Z,9.80
2022-12-16T15:32:52.938Z,8.87
2022-12-16T15:35:44.299Z,8.87
2022-12-16T15:38:42.063Z,8.70
2022-12-16T15:41:41.292Z,9.17
2022-12-16T15:44:38.322Z,9.17
2022-12-16T15:47:25.749Z,9.50
2022-12-16T15:50:11.001Z,9.43
2022-12-16T15:53:03.302Z,9.83
2022-12-16T15:55:49.970Z,8.27
2022-12-16T15:58:44.977Z,9.10
2022-12-16T16:01:32.748Z,8.20
2022-12-16T16:04:18.427Z,8.33
2022-12-16T16:07:11.559Z,8.50
2022-12-16T16:09:58.335Z,7.83
2022-12-16T16:12:44.499Z,8.87
2022-12-16T16:15:31.899Z,8.90
2022-12-16T16:18:20.314Z,8.50
2022-12-16T16:21:05.819Z,8.70
2022-12-16T16:23:51.096Z,7.40
2022-12-16T16:26:41.083Z,6.53
2022-12-16T16:29:28.636Z,6.73
2022-12-16T16:32:13.687Z,6.83
2022-12-16T16:34:58.991Z,6.67
2022-12-16T16:37:44.146Z,7.33
2022-12-16T16:40:55.992Z,7.10
2022-12-16T16:43:42.568Z,6.30
2022-12-16T16:46:40.179Z,7.53
2022-12-16T16:49:30.324Z,5.53
2022-12-16T16:52:15.715Z,5.27
2022-12-16T16:55:00.942Z,7.88
2022-12-16T16:57:48.704Z,5.80
2022-12-16T17:00:34.432Z,5.67
2022-12-16T17:03:19.755Z,5.10
2022-12-16T17:06:05.278Z,6.10
2022-12-16T17:08:50.588Z,6.60
2022-12-16T17:11:38.825Z,7.20
2022-12-16T17:14:24.112Z,6.87
2022-12-16T17:17:09.649Z,7.10
2022-12-16T17:19:54.894Z,5.97
2022-12-16T17:22:40.182Z,6.67
2022-12-16T17:25:25.918Z,6.27
2022-12-16T17:28:11.407Z,8.13
2022-12-16T17:30:56.674Z,9.03
2022-12-16T17:33:41.725Z,9.20
2022-12-16T17:36:34.629Z,8.80
2022-12-16T17:39:20.514Z,10.70
2022-12-16T17:42:05.736Z,11.07
2022-12-16T17:44:51.066Z,11.43
2022-12-16T17:47:36.761Z,17.67
2022-12-16T17:50:23.804Z,15.47
2022-12-16T17:53:13.625Z,16.83
2022-12-16T17:55:59.399Z,18.83
2022-12-16T17:58:52.743Z,18.40
2022-12-16T18:01:39.024Z,21.63
2022-12-16T18:04:24.831Z,21.83
2022-12-16T18:07:10.151Z,20.93
2022-12-16T18:09:55.388Z,18.50
2022-12-16T18:12:41.173Z,16.67
2022-12-16T18:15:27.482Z,18.23
2022-12-16T18:18:12.725Z,19.47
2022-12-16T18:20:57.881Z,20.60
2022-12-16T18:23:42.982Z,19.20
2022-12-16T18:26:28.870Z,20.73
2022-12-16T18:29:14.529Z,21.37
2022-12-16T18:32:02.904Z,21.33
2022-12-16T18:34:48.426Z,21.47
2022-12-16T18:37:33.636Z,21.90
2022-12-16T18:40:18.843Z,20.90
2022-12-16T18:43:04.036Z,20.83
2022-12-16T18:45:49.577Z,23.20
2022-12-16T18:48:34.996Z,22.60
2022-12-16T18:51:20.616Z,19.53
2022-12-16T18:54:08.484Z,20.87
2022-12-16T18:56:53.719Z,19.57
2022-12-16T18:59:38.839Z,16.00
2022-12-16T19:02:24.165Z,16.13
2022-12-16T19:05:09.450Z,15.20
2022-12-16T19:07:54.622Z,15.07
2022-12-16T19:10:40.449Z,15.63
2022-12-16T19:13:25.808Z,15.53
2022-12-16T19:16:15.462Z,15.13
2022-12-16T19:19:01.286Z,12.37
2022-12-16T19:24:54.962Z,12.10
2022-12-16T19:27:42.149Z,11.60
2022-12-16T19:30:28.553Z,12.03
2022-12-16T19:33:13.993Z,11.37
2022-12-16T19:35:59.483Z,11.97
2022-12-16T19:38:44.623Z,12.70
2022-12-16T19:41:33.868Z,11.10
2022-12-16T19:44:23.377Z,11.90
2022-12-16T19:50:14.089Z,11.67
2022-12-16T19:52:59.331Z,12.67
2022-12-16T19:55:44.350Z,10.80
2022-12-16T19:58:29.538Z,11.73
2022-12-16T20:01:14.891Z,10.73
2022-12-16T20:04:00.122Z,11.13
2022-12-16T20:06:45.439Z,10.43
2022-12-16T20:09:30.668Z,9.97
2022-12-16T20:12:15.869Z,10.73
2022-12-16T20:15:01.250Z,10.30
2022-12-16T20:17:46.578Z,10.60
2022-12-16T20:20:31.859Z,10.33
2022-12-16T20:23:17.110Z,10.77
2022-12-16T20:26:02.242Z,10.73
2022-12-16T20:28:57.755Z,16.07
2022-12-16T20:31:42.940Z,12.13
2022-12-16T20:34:28.158Z,10.90
2022-12-16T20:37:13.366Z,11.57
2022-12-16T20:39:58.552Z,11.47
2022-12-16T20:42:44.887Z,11.73
2022-12-16T20:45:34.985Z,9.90
2022-12-16T20:48:20.686Z,9.07
2022-12-16T20:51:14.178Z,11.30
2022-12-16T20:53:59.992Z,10.00
2022-12-16T20:56:45.249Z,10.70
2022-12-16T20:59:30.542Z,10.30
2022-12-16T21:02:25.883Z,9.53
2022-12-16T21:05:13.519Z,9.17
2022-12-16T21:07:58.733Z,9.90
2022-12-16T21:10:44.167Z,9.93
2022-12-16T21:13:32.624Z,9.43
2022-12-16T21:16:19.342Z,9.40
2022-12-16T21:19:04.506Z,10.07
2022-12-16T21:21:49.760Z,10.47
2022-12-16T21:24:35.023Z,9.50
2022-12-16T21:27:20.264Z,10.87
2022-12-16T21:30:05.592Z,9.50
2022-12-16T21:32:50.949Z,9.47
2022-12-16T21:35:39.088Z,12.03
2022-12-16T21:38:31.419Z,9.67
2022-12-16T21:41:17.014Z,11.43
2022-12-16T21:44:02.107Z,11.17
2022-12-16T21:46:47.528Z,15.00
2022-12-16T21:49:34.794Z,15.30
2022-12-16T21:52:20.041Z,12.47
2022-12-16T21:55:05.467Z,18.53
2022-12-16T21:57:51.174Z,15.20
2022-12-16T22:00:38.698Z,15.50
2022-12-16T22:03:24.015Z,15.07
2022-12-16T22:06:09.328Z,15.13
2022-12-16T22:08:56.239Z,15.87
2022-12-16T22:11:41.852Z,16.43
2022-12-16T22:14:27.074Z,21.33
2022-12-16T22:17:12.520Z,16.37
2022-12-16T22:19:57.931Z,16.30
2022-12-16T22:22:43.328Z,15.90
2022-12-16T22:25:28.949Z,14.40
2022-12-16T22:28:14.115Z,15.10
2022-12-16T22:30:59.513Z,14.87
2022-12-16T22:33:44.557Z,16.73
2022-12-16T22:36:31.898Z,15.93
2022-12-16T22:39:17.313Z,18.10
2022-12-16T22:42:02.689Z,15.90
2022-12-16T22:44:48.026Z,14.90
2022-12-16T22:47:33.337Z,18.97
2022-12-16T22:50:18.562Z,16.40
2022-12-16T22:53:03.927Z,15.00
2022-12-16T22:55:49.286Z,13.43
2022-12-16T22:58:34.604Z,13.63
2022-12-16T23:01:19.805Z,13.47
2022-12-16T23:04:05.071Z,14.03
2022-12-16T23:06:50.161Z,14.23
2022-12-16T23:09:35.435Z,13.53
2022-12-16T23:12:20.764Z,12.73
2022-12-16T23:15:06.206Z,14.10
2022-12-16T23:17:51.406Z,14.63
2022-12-16T23:20:36.987Z,12.30
2022-12-16T23:23:22.386Z,13.63
2022-12-16T23:26:15.724Z,13.13
2022-12-16T23:29:00.946Z,13.87
2022-12-16T23:31:46.413Z,14.70
2022-12-16T23:34:31.802Z,14.93
2022-12-16T23:37:16.993Z,15.07
2022-12-16T23:40:02.281Z,14.73
2022-12-16T23:42:47.487Z,15.33
2022-12-16T23:45:32.749Z,15.30
2022-12-16T23:48:27.156Z,15.20
2022-12-16T23:51:12.989Z,13.63
2022-12-16T23:53:58.566Z,11.33
2022-12-16T23:56:44.234Z,12.83
2022-12-16T23:59:29.423Z,10.73
